首页
METAR-TAF:

METAR-TAF

机场 :

尼亞美, 尼日尔

迪奥里·哈马尼国际机场

纬度: 13-29N, 经度: 002-10E, 海拔: 223米

当前天气观测

该预报发布于30分钟前的14:00 UTC
风速7节,风向西北,在西北转东北之间变化
温度 43°C
湿度 8%
气压 1006 hPa
能见度10公里或以上
1500米以下无云,无积雨云

METAR: DRRN 241400Z 32007KT 280V020 CAVOK 43/02 Q1006 NOSIG

时间: 15:30 (14:30 UTC)

预报

该预报发布于3小时和30分钟前的11:00 UTC
预报有效从24日的 12点(UTC)到 25日的 18点(UTC)
风速8节,风向西转西南
能見度: 6000
短暂存在
从 24日的 17点(UTC)到 24日的 20点(UTC)
能見度: 3500
浮尘
短暂存在
从 25日的 06点(UTC)到 25日的 08点(UTC)
能見度: 4000
浮尘
几率 40% :
短暂存在
从 25日的 15点(UTC)到 25日的 18点(UTC)
风速25节,风向多变
能見度: 1500
少量云层高于4500英尺, 积雨云.
高吹尘, 雷暴

TAF: DRRN 241100Z 2412/2518 25008KT 6000 NSC TEMPO 2417/2420 3500 DU TEMPO 2506/2508 4000 DU PROB40 TEMPO 2515/2518 VRB25KT 1500 BLDU TS FEW045CB

超过4000个机场的气象观测和天气预报(METAR&TAF报告)。

可查询的气象台以黄色和红色小点在地图上表示。

将鼠标移到小点上方,可查看气象台名称。

然后点击查看天气观测和预报。

如需切换地图:点击带黑十字的绿色按钮放大地图;点击带横线的绿色按钮缩小地图;或者点击绿色箭头查看邻近地区的地图。


METAR-TAF: